sensor_id;sensor_type;location;lat;lon;timestamp;pressure;altitude;pressure_sealevel;temperature;humidity
20368;BME280;10343;52.402;9.796;2023-05-08T00:00:44;101748.69;;;15.58;52.17
20368;BME280;10343;52.402;9.796;2023-05-08T00:03:13;101754.56;;;15.71;52.09
20368;BME280;10343;52.402;9.796;2023-05-08T00:05:41;101754.19;;;16.47;49.95
20368;BME280;10343;52.402;9.796;2023-05-08T00:08:09;101749.53;;;15.93;50.98
20368;BME280;10343;52.402;9.796;2023-05-08T00:10:38;101751.59;;;16.15;50.15
20368;BME280;10343;52.402;9.796;2023-05-08T00:13:06;101749.44;;;15.96;50.94
20368;BME280;10343;52.402;9.796;2023-05-08T00:15:35;101747.97;;;15.86;51.14
20368;BME280;10343;52.402;9.796;2023-05-08T00:18:03;101742.00;;;15.41;51.98
20368;BME280;10343;52.402;9.796;2023-05-08T00:20:31;101744.69;;;15.41;52.38
20368;BME280;10343;52.402;9.796;2023-05-08T00:23:00;101745.75;;;15.67;51.93
20368;BME280;10343;52.402;9.796;2023-05-08T00:25:28;101755.09;;;16.17;50.48
20368;BME280;10343;52.402;9.796;2023-05-08T00:27:58;101754.91;;;16.23;49.98
20368;BME280;10343;52.402;9.796;2023-05-08T00:30:26;101750.88;;;16.08;50.81
20368;BME280;10343;52.402;9.796;2023-05-08T00:32:54;101753.97;;;15.94;50.82
20368;BME280;10343;52.402;9.796;2023-05-08T00:35:22;101755.97;;;15.86;50.69
20368;BME280;10343;52.402;9.796;2023-05-08T00:37:51;101753.41;;;15.81;51.31
20368;BME280;10343;52.402;9.796;2023-05-08T00:40:19;101757.97;;;15.77;51.32
20368;BME280;10343;52.402;9.796;2023-05-08T00:42:47;101757.66;;;15.90;50.95
20368;BME280;10343;52.402;9.796;2023-05-08T00:45:16;101764.41;;;15.69;51.29
20368;BME280;10343;52.402;9.796;2023-05-08T00:47:44;101761.69;;;15.72;51.73
20368;BME280;10343;52.402;9.796;2023-05-08T00:50:13;101763.16;;;15.49;51.77
20368;BME280;10343;52.402;9.796;2023-05-08T00:52:41;101755.91;;;15.54;52.03
20368;BME280;10343;52.402;9.796;2023-05-08T00:55:09;101754.06;;;15.56;51.63
20368;BME280;10343;52.402;9.796;2023-05-08T00:57:38;101753.28;;;15.18;53.29
20368;BME280;10343;52.402;9.796;2023-05-08T01:00:07;101745.63;;;16.05;50.66
20368;BME280;10343;52.402;9.796;2023-05-08T01:02:38;101747.41;;;16.04;50.60
20368;BME280;10343;52.402;9.796;2023-05-08T01:05:07;101749.28;;;16.02;50.74
20368;BME280;10343;52.402;9.796;2023-05-08T01:07:36;101753.47;;;15.78;51.04
20368;BME280;10343;52.402;9.796;2023-05-08T01:10:05;101738.34;;;15.78;51.04
20368;BME280;10343;52.402;9.796;2023-05-08T01:12:38;101737.66;;;15.70;51.66
20368;BME280;10343;52.402;9.796;2023-05-08T01:15:12;101737.03;;;15.26;52.24
20368;BME280;10343;52.402;9.796;2023-05-08T01:18:06;101739.34;;;15.41;51.98
20368;BME280;10343;52.402;9.796;2023-05-08T01:20:43;101739.00;;;15.54;51.52
20368;BME280;10343;52.402;9.796;2023-05-08T01:23:39;101740.81;;;15.86;50.66
20368;BME280;10343;52.402;9.796;2023-05-08T01:26:41;101731.38;;;15.71;50.02
20368;BME280;10343;52.402;9.796;2023-05-08T01:29:54;101737.75;;;14.98;52.26
20368;BME280;10343;52.402;9.796;2023-05-08T01:32:35;101727.34;;;15.22;52.01
20368;BME280;10343;52.402;9.796;2023-05-08T01:35:11;101735.25;;;15.61;50.90
20368;BME280;10343;52.402;9.796;2023-05-08T01:37:49;101732.66;;;16.21;48.80
20368;BME280;10343;52.402;9.796;2023-05-08T01:40:29;101734.88;;;15.42;51.08
20368;BME280;10343;52.402;9.796;2023-05-08T01:43:09;101735.31;;;15.25;51.51
20368;BME280;10343;52.402;9.796;2023-05-08T01:45:44;101739.88;;;15.54;50.31
20368;BME280;10343;52.402;9.796;2023-05-08T01:48:17;101743.88;;;15.03;51.69
20368;BME280;10343;52.402;9.796;2023-05-08T01:50:48;101739.75;;;14.90;52.50
20368;BME280;10343;52.402;9.796;2023-05-08T01:53:22;101740.06;;;15.12;51.55
20368;BME280;10343;52.402;9.796;2023-05-08T01:55:57;101741.66;;;15.21;51.46
20368;BME280;10343;52.402;9.796;2023-05-08T01:58:26;101740.66;;;14.89;52.18
20368;BME280;10343;52.402;9.796;2023-05-08T02:00:57;101741.03;;;15.09;51.55
20368;BME280;10343;52.402;9.796;2023-05-08T02:03:30;101745.97;;;14.89;52.03
20368;BME280;10343;52.402;9.796;2023-05-08T02:05:59;101751.75;;;14.31;53.88
20368;BME280;10343;52.402;9.796;2023-05-08T02:08:28;101740.56;;;14.53;53.14
20368;BME280;10343;52.402;9.796;2023-05-08T02:10:58;101734.88;;;15.07;51.24
20368;BME280;10343;52.402;9.796;2023-05-08T02:13:28;101730.69;;;14.95;51.34
20368;BME280;10343;52.402;9.796;2023-05-08T02:15:58;101736.13;;;14.53;52.28
20368;BME280;10343;52.402;9.796;2023-05-08T02:18:30;101734.47;;;14.07;53.74
20368;BME280;10343;52.402;9.796;2023-05-08T02:20:59;101735.09;;;14.59;52.92
20368;BME280;10343;52.402;9.796;2023-05-08T02:23:31;101736.22;;;15.24;50.72
20368;BME280;10343;52.402;9.796;2023-05-08T02:26:00;101737.03;;;14.52;52.44
20368;BME280;10343;52.402;9.796;2023-05-08T02:28:30;101740.16;;;14.73;51.67
20368;BME280;10343;52.402;9.796;2023-05-08T02:30:59;101748.84;;;14.40;51.83
20368;BME280;10343;52.402;9.796;2023-05-08T02:33:30;101746.53;;;14.67;51.97
20368;BME280;10343;52.402;9.796;2023-05-08T02:36:01;101739.47;;;15.01;51.14
20368;BME280;10343;52.402;9.796;2023-05-08T02:38:30;101743.41;;;14.47;52.18
20368;BME280;10343;52.402;9.796;2023-05-08T02:41:00;101749.34;;;14.97;51.23
20368;BME280;10343;52.402;9.796;2023-05-08T02:43:29;101741.13;;;14.28;52.90
20368;BME280;10343;52.402;9.796;2023-05-08T02:46:04;101742.69;;;14.38;52.28
20368;BME280;10343;52.402;9.796;2023-05-08T02:48:42;101745.44;;;14.35;52.65
20368;BME280;10343;52.402;9.796;2023-05-08T02:51:17;101745.81;;;14.57;52.09
20368;BME280;10343;52.402;9.796;2023-05-08T02:53:53;101750.22;;;14.58;51.91
20368;BME280;10343;52.402;9.796;2023-05-08T02:56:30;101738.75;;;14.94;50.37
20368;BME280;10343;52.402;9.796;2023-05-08T02:59:18;101740.19;;;14.71;50.91
20368;BME280;10343;52.402;9.796;2023-05-08T03:01:50;101740.69;;;14.48;51.98
20368;BME280;10343;52.402;9.796;2023-05-08T03:04:27;101731.34;;;15.05;50.53
20368;BME280;10343;52.402;9.796;2023-05-08T03:06:56;101735.31;;;14.50;51.56
20368;BME280;10343;52.402;9.796;2023-05-08T03:09:30;101723.19;;;15.11;50.85
20368;BME280;10343;52.402;9.796;2023-05-08T03:12:05;101725.63;;;15.19;50.05
20368;BME280;10343;52.402;9.796;2023-05-08T03:14:43;101724.41;;;14.98;50.83
20368;BME280;10343;52.402;9.796;2023-05-08T03:17:13;101722.59;;;15.00;50.36
20368;BME280;10343;52.402;9.796;2023-05-08T03:19:47;101728.38;;;14.42;51.92
20368;BME280;10343;52.402;9.796;2023-05-08T03:22:18;101729.81;;;14.17;53.02
20368;BME280;10343;52.402;9.796;2023-05-08T03:24:49;101730.94;;;14.06;53.33
20368;BME280;10343;52.402;9.796;2023-05-08T03:27:18;101722.38;;;14.72;51.42
20368;BME280;10343;52.402;9.796;2023-05-08T03:29:47;101718.88;;;15.06;50.15
20368;BME280;10343;52.402;9.796;2023-05-08T03:32:19;101715.25;;;15.08;50.69
20368;BME280;10343;52.402;9.796;2023-05-08T03:34:50;101727.66;;;14.73;50.96
20368;BME280;10343;52.402;9.796;2023-05-08T03:37:19;101720.28;;;14.46;51.73
20368;BME280;10343;52.402;9.796;2023-05-08T03:39:47;101722.91;;;14.47;51.94
20368;BME280;10343;52.402;9.796;2023-05-08T03:42:15;101723.53;;;14.19;52.68
20368;BME280;10343;52.402;9.796;2023-05-08T03:44:49;101720.31;;;14.44;52.61
20368;BME280;10343;52.402;9.796;2023-05-08T03:47:18;101722.66;;;14.19;53.01
20368;BME280;10343;52.402;9.796;2023-05-08T03:49:50;101715.09;;;14.38;53.05
20368;BME280;10343;52.402;9.796;2023-05-08T03:52:19;101713.50;;;14.31;52.40
20368;BME280;10343;52.402;9.796;2023-05-08T03:54:49;101718.47;;;13.63;54.31
20368;BME280;10343;52.402;9.796;2023-05-08T03:57:18;101713.53;;;14.29;52.92
20368;BME280;10343;52.402;9.796;2023-05-08T03:59:49;101718.16;;;14.60;51.82
20368;BME280;10343;52.402;9.796;2023-05-08T04:02:28;101722.44;;;13.87;54.28
20368;BME280;10343;52.402;9.796;2023-05-08T04:05:08;101723.56;;;14.57;51.85
20368;BME280;10343;52.402;9.796;2023-05-08T04:07:45;101728.00;;;14.58;51.94
20368;BME280;10343;52.402;9.796;2023-05-08T04:10:20;101729.44;;;14.34;52.11
20368;BME280;10343;52.402;9.796;2023-05-08T04:12:56;101722.66;;;14.58;51.96
20368;BME280;10343;52.402;9.796;2023-05-08T04:15:35;101726.47;;;14.46;51.90
20368;BME280;10343;52.402;9.796;2023-05-08T04:18:08;101729.50;;;13.90;53.93
20368;BME280;10343;52.402;9.796;2023-05-08T04:20:40;101726.16;;;14.21;52.81
20368;BME280;10343;52.402;9.796;2023-05-08T04:23:13;101731.91;;;14.43;52.10
20368;BME280;10343;52.402;9.796;2023-05-08T04:25:43;101735.47;;;14.83;50.96
20368;BME280;10343;52.402;9.796;2023-05-08T04:28:14;101730.75;;;14.55;52.27
20368;BME280;10343;52.402;9.796;2023-05-08T04:30:43;101727.44;;;15.19;50.12
20368;BME280;10343;52.402;9.796;2023-05-08T04:33:13;101732.97;;;14.75;51.34
20368;BME280;10343;52.402;9.796;2023-05-08T04:35:45;101733.13;;;15.05;50.50
20368;BME280;10343;52.402;9.796;2023-05-08T04:38:13;101734.00;;;15.41;49.33
20368;BME280;10343;52.402;9.796;2023-05-08T04:40:42;101744.75;;;15.38;48.86
20368;BME280;10343;52.402;9.796;2023-05-08T04:43:10;101745.09;;;14.51;51.85
20368;BME280;10343;52.402;9.796;2023-05-08T04:45:38;101744.31;;;15.21;50.30
20368;BME280;10343;52.402;9.796;2023-05-08T04:48:07;101751.50;;;14.40;51.70
20368;BME280;10343;52.402;9.796;2023-05-08T04:50:35;101741.16;;;15.05;50.38
20368;BME280;10343;52.402;9.796;2023-05-08T04:53:05;101748.94;;;14.78;50.25
20368;BME280;10343;52.402;9.796;2023-05-08T04:55:33;101750.59;;;14.84;50.44
20368;BME280;10343;52.402;9.796;2023-05-08T04:58:01;101746.53;;;14.67;50.88
20368;BME280;10343;52.402;9.796;2023-05-08T05:00:29;101743.94;;;15.00;50.05
20368;BME280;10343;52.402;9.796;2023-05-08T05:02:58;101748.63;;;14.51;51.44
20368;BME280;10343;52.402;9.796;2023-05-08T05:05:26;101754.47;;;15.06;50.62
20368;BME280;10343;52.402;9.796;2023-05-08T05:07:54;101749.03;;;15.09;50.10
20368;BME280;10343;52.402;9.796;2023-05-08T05:10:24;101758.22;;;14.99;50.13
20368;BME280;10343;52.402;9.796;2023-05-08T05:12:53;101753.69;;;15.01;49.77
20368;BME280;10343;52.402;9.796;2023-05-08T05:15:21;101753.59;;;14.68;50.73
20368;BME280;10343;52.402;9.796;2023-05-08T05:17:49;101749.75;;;15.51;48.77
20368;BME280;10343;52.402;9.796;2023-05-08T05:20:18;101743.94;;;15.00;50.05
20368;BME280;10343;52.402;9.796;2023-05-08T05:22:46;101753.59;;;14.27;52.18
20368;BME280;10343;52.402;9.796;2023-05-08T05:25:14;101750.63;;;14.41;52.10
20368;BME280;10343;52.402;9.796;2023-05-08T05:27:43;101748.31;;;14.24;52.61
20368;BME280;10343;52.402;9.796;2023-05-08T05:30:12;101750.34;;;14.93;50.99
20368;BME280;10343;52.402;9.796;2023-05-08T05:32:40;101748.00;;;15.17;49.98
20368;BME280;10343;52.402;9.796;2023-05-08T05:35:09;101750.72;;;15.83;48.54
20368;BME280;10343;52.402;9.796;2023-05-08T05:37:37;101761.78;;;14.98;50.06
20368;BME280;10343;52.402;9.796;2023-05-08T05:40:06;101760.03;;;14.97;50.64
20368;BME280;10343;52.402;9.796;2023-05-08T05:42:36;101764.38;;;15.37;49.87
20368;BME280;10343;52.402;9.796;2023-05-08T05:45:06;101755.22;;;15.81;47.85
20368;BME280;10343;52.402;9.796;2023-05-08T05:47:35;101762.69;;;15.68;48.67
20368;BME280;10343;52.402;9.796;2023-05-08T05:50:05;101765.56;;;15.60;48.72
20368;BME280;10343;52.402;9.796;2023-05-08T05:52:34;101763.81;;;15.24;49.49
20368;BME280;10343;52.402;9.796;2023-05-08T05:55:02;101769.25;;;14.84;51.22
20368;BME280;10343;52.402;9.796;2023-05-08T05:57:30;101768.91;;;15.34;49.96
20368;BME280;10343;52.402;9.796;2023-05-08T05:59:59;101761.97;;;15.61;49.26
20368;BME280;10343;52.402;9.796;2023-05-08T06:02:30;101767.50;;;15.19;50.25
20368;BME280;10343;52.402;9.796;2023-05-08T06:04:59;101764.66;;;15.61;49.45
20368;BME280;10343;52.402;9.796;2023-05-08T06:07:27;101770.41;;;15.45;50.18
20368;BME280;10343;52.402;9.796;2023-05-08T06:09:55;101777.06;;;15.63;48.89
20368;BME280;10343;52.402;9.796;2023-05-08T06:12:23;101773.34;;;15.69;48.74
20368;BME280;10343;52.402;9.796;2023-05-08T06:14:52;101769.91;;;15.97;48.18
20368;BME280;10343;52.402;9.796;2023-05-08T06:17:20;101769.38;;;16.16;47.59
20368;BME280;10343;52.402;9.796;2023-05-08T06:19:52;101779.28;;;15.81;48.57
20368;BME280;10343;52.402;9.796;2023-05-08T06:22:22;101781.22;;;16.07;48.02
20368;BME280;10343;52.402;9.796;2023-05-08T06:24:51;101778.25;;;16.18;47.50
20368;BME280;10343;52.402;9.796;2023-05-08T06:27:19;101779.47;;;16.06;47.60
20368;BME280;10343;52.402;9.796;2023-05-08T06:29:48;101779.00;;;15.57;49.21
20368;BME280;10343;52.402;9.796;2023-05-08T06:32:18;101782.59;;;16.22;47.81
20368;BME280;10343;52.402;9.796;2023-05-08T06:34:47;101779.19;;;16.46;47.59
20368;BME280;10343;52.402;9.796;2023-05-08T06:37:16;101773.56;;;16.56;47.08
20368;BME280;10343;52.402;9.796;2023-05-08T06:39:44;101776.81;;;17.22;46.06
20368;BME280;10343;52.402;9.796;2023-05-08T06:42:16;101780.84;;;16.79;46.29
20368;BME280;10343;52.402;9.796;2023-05-08T06:44:44;101781.72;;;16.79;46.32
20368;BME280;10343;52.402;9.796;2023-05-08T06:47:13;101773.78;;;17.58;44.54
20368;BME280;10343;52.402;9.796;2023-05-08T06:49:41;101772.25;;;17.24;45.35
20368;BME280;10343;52.402;9.796;2023-05-08T06:52:08;101776.34;;;17.36;45.18
20368;BME280;10343;52.402;9.796;2023-05-08T06:54:38;101781.66;;;17.63;44.62
20368;BME280;10343;52.402;9.796;2023-05-08T06:57:06;101784.16;;;17.15;45.61
20368;BME280;10343;52.402;9.796;2023-05-08T06:59:34;101786.25;;;16.77;46.60
20368;BME280;10343;52.402;9.796;2023-05-08T07:02:02;101779.56;;;17.71;44.74
20368;BME280;10343;52.402;9.796;2023-05-08T07:04:30;101781.66;;;17.63;45.05
20368;BME280;10343;52.402;9.796;2023-05-08T07:06:59;101774.84;;;18.28;43.69
20368;BME280;10343;52.402;9.796;2023-05-08T07:09:27;101779.06;;;18.58;43.10
20368;BME280;10343;52.402;9.796;2023-05-08T07:11:56;101776.88;;;17.46;45.19
20368;BME280;10343;52.402;9.796;2023-05-08T07:14:24;101779.81;;;17.65;44.93
20368;BME280;10343;52.402;9.796;2023-05-08T07:16:52;101780.16;;;17.79;44.72
20368;BME280;10343;52.402;9.796;2023-05-08T07:19:20;101770.91;;;18.13;44.23
20368;BME280;10343;52.402;9.796;2023-05-08T07:21:48;101771.75;;;17.65;45.17
20368;BME280;10343;52.402;9.796;2023-05-08T07:24:16;101761.50;;;18.49;43.66
20368;BME280;10343;52.402;9.796;2023-05-08T07:26:44;101770.78;;;17.93;44.41
20368;BME280;10343;52.402;9.796;2023-05-08T07:29:14;101768.59;;;17.54;45.21
20368;BME280;10343;52.402;9.796;2023-05-08T07:31:42;101776.81;;;17.74;44.93
20368;BME280;10343;52.402;9.796;2023-05-08T07:34:11;101764.59;;;19.06;42.20
20368;BME280;10343;52.402;9.796;2023-05-08T07:36:39;101768.59;;;19.18;41.54
20368;BME280;10343;52.402;9.796;2023-05-08T07:39:07;101771.03;;;18.34;43.31
20368;BME280;10343;52.402;9.796;2023-05-08T07:41:36;101770.91;;;18.37;43.48
20368;BME280;10343;52.402;9.796;2023-05-08T07:44:06;101764.72;;;18.59;43.29
20368;BME280;10343;52.402;9.796;2023-05-08T07:46:36;101767.84;;;18.01;43.85
20368;BME280;10343;52.402;9.796;2023-05-08T07:49:04;101767.19;;;18.41;43.82
20368;BME280;10343;52.402;9.796;2023-05-08T07:51:32;101769.81;;;18.65;43.14
20368;BME280;10343;52.402;9.796;2023-05-08T07:54:00;101770.00;;;18.14;44.39
20368;BME280;10343;52.402;9.796;2023-05-08T07:56:28;101769.25;;;19.66;42.08
20368;BME280;10343;52.402;9.796;2023-05-08T07:58:56;101774.13;;;18.69;42.90
20368;BME280;10343;52.402;9.796;2023-05-08T08:01:25;101775.59;;;18.78;43.44
20368;BME280;10343;52.402;9.796;2023-05-08T08:03:54;101780.53;;;19.54;41.81
20368;BME280;10343;52.402;9.796;2023-05-08T08:06:22;101783.47;;;19.27;42.38
20368;BME280;10343;52.402;9.796;2023-05-08T08:08:50;101790.72;;;18.80;42.94
20368;BME280;10343;52.402;9.796;2023-05-08T08:11:22;101788.13;;;18.77;43.23
20368;BME280;10343;52.402;9.796;2023-05-08T08:13:50;101779.47;;;19.78;41.26
20368;BME280;10343;52.402;9.796;2023-05-08T08:16:18;101785.69;;;18.95;43.07
20368;BME280;10343;52.402;9.796;2023-05-08T08:18:46;101780.69;;;19.71;42.11
20368;BME280;10343;52.402;9.796;2023-05-08T08:21:16;101781.59;;;18.84;43.20
20368;BME280;10343;52.402;9.796;2023-05-08T08:23:44;101775.28;;;19.30;42.31
20368;BME280;10343;52.402;9.796;2023-05-08T08:26:12;101766.94;;;19.36;42.31
20368;BME280;10343;52.402;9.796;2023-05-08T08:28:40;101768.97;;;19.72;41.99
20368;BME280;10343;52.402;9.796;2023-05-08T08:31:08;101772.72;;;19.68;41.83
20368;BME280;10343;52.402;9.796;2023-05-08T08:33:36;101767.44;;;19.03;42.78
20368;BME280;10343;52.402;9.796;2023-05-08T08:36:11;101766.88;;;18.95;43.05
20368;BME280;10343;52.402;9.796;2023-05-08T08:38:41;101775.00;;;18.93;42.84
20368;BME280;10343;52.402;9.796;2023-05-08T08:41:12;101772.19;;;19.39;42.23
20368;BME280;10343;52.402;9.796;2023-05-08T08:43:41;101765.81;;;19.83;41.42
20368;BME280;10343;52.402;9.796;2023-05-08T08:46:11;101778.00;;;19.50;41.75
20368;BME280;10343;52.402;9.796;2023-05-08T08:48:43;101763.50;;;19.53;41.76
20368;BME280;10343;52.402;9.796;2023-05-08T08:51:15;101769.09;;;19.48;42.42
20368;BME280;10343;52.402;9.796;2023-05-08T08:53:48;101759.84;;;20.35;40.63
20368;BME280;10343;52.402;9.796;2023-05-08T08:56:20;101763.13;;;19.62;42.13
20368;BME280;10343;52.402;9.796;2023-05-08T08:58:55;101755.38;;;19.96;41.40
20368;BME280;10343;52.402;9.796;2023-05-08T09:01:25;101755.09;;;20.02;41.21
20368;BME280;10343;52.402;9.796;2023-05-08T09:03:56;101755.25;;;19.58;41.87
20368;BME280;10343;52.402;9.796;2023-05-08T09:06:25;101753.81;;;20.30;40.88
20368;BME280;10343;52.402;9.796;2023-05-08T09:08:56;101740.72;;;21.14;39.40
20368;BME280;10343;52.402;9.796;2023-05-08T09:11:24;101749.03;;;19.76;41.85
20368;BME280;10343;52.402;9.796;2023-05-08T09:13:53;101749.44;;;20.27;41.00
20368;BME280;10343;52.402;9.796;2023-05-08T09:16:22;101739.94;;;19.80;41.55
20368;BME280;10343;52.402;9.796;2023-05-08T09:18:50;101742.81;;;19.76;41.57
20368;BME280;10343;52.402;9.796;2023-05-08T09:21:19;101731.53;;;21.18;39.10
20368;BME280;10343;52.402;9.796;2023-05-08T09:23:57;101737.19;;;20.01;40.90
20368;BME280;10343;52.402;9.796;2023-05-08T09:26:27;101733.44;;;20.43;40.17
20368;BME280;10343;52.402;9.796;2023-05-08T09:29:10;101740.50;;;20.65;39.92
20368;BME280;10343;52.402;9.796;2023-05-08T09:31:40;101737.97;;;20.24;40.78
20368;BME280;10343;52.402;9.796;2023-05-08T09:34:09;101730.78;;;20.80;39.84
20368;BME280;10343;52.402;9.796;2023-05-08T09:36:37;101744.00;;;21.03;39.44
20368;BME280;10343;52.402;9.796;2023-05-08T09:39:10;101741.91;;;20.91;39.82
20368;BME280;10343;52.402;9.796;2023-05-08T09:41:55;101739.69;;;20.82;39.43
20368;BME280;10343;52.402;9.796;2023-05-08T09:44:24;101738.94;;;20.59;39.84
20368;BME280;10343;52.402;9.796;2023-05-08T09:47:08;101738.59;;;21.03;39.54
20368;BME280;10343;52.402;9.796;2023-05-08T09:49:37;101727.59;;;21.26;39.39
20368;BME280;10343;52.402;9.796;2023-05-08T09:52:05;101737.75;;;20.84;40.24
20368;BME280;10343;52.402;9.796;2023-05-08T09:54:35;101726.56;;;21.28;39.11
20368;BME280;10343;52.402;9.796;2023-05-08T09:57:10;101727.22;;;20.60;40.18
20368;BME280;10343;52.402;9.796;2023-05-08T09:59:39;101729.47;;;20.89;40.12
20368;BME280;10343;52.402;9.796;2023-05-08T10:02:11;101722.19;;;21.61;38.20
20368;BME280;10343;52.402;9.796;2023-05-08T10:04:42;101729.66;;;21.55;37.85
20368;BME280;10343;52.402;9.796;2023-05-08T10:07:10;101720.59;;;21.74;37.28
20368;BME280;10343;52.402;9.796;2023-05-08T10:09:39;101719.19;;;22.16;36.69
20368;BME280;10343;52.402;9.796;2023-05-08T10:12:24;101711.91;;;22.50;36.20
20368;BME280;10343;52.402;9.796;2023-05-08T10:14:52;101719.75;;;22.55;35.41
20368;BME280;10343;52.402;9.796;2023-05-08T10:17:25;101715.00;;;21.77;36.89
20368;BME280;10343;52.402;9.796;2023-05-08T10:19:57;101723.94;;;21.62;37.55
20368;BME280;10343;52.402;9.796;2023-05-08T10:22:27;101728.06;;;21.69;36.75
20368;BME280;10343;52.402;9.796;2023-05-08T10:24:59;101724.97;;;21.93;36.27
20368;BME280;10343;52.402;9.796;2023-05-08T10:27:33;101732.31;;;21.73;36.37
20368;BME280;10343;52.402;9.796;2023-05-08T10:30:04;101723.00;;;21.63;36.49
20368;BME280;10343;52.402;9.796;2023-05-08T10:32:37;101720.59;;;21.74;37.04
20368;BME280;10343;52.402;9.796;2023-05-08T10:35:09;101711.13;;;22.95;35.23
20368;BME280;10343;52.402;9.796;2023-05-08T10:37:38;101715.88;;;22.11;36.12
20368;BME280;10343;52.402;9.796;2023-05-08T10:40:10;101701.22;;;22.31;35.81
20368;BME280;10343;52.402;9.796;2023-05-08T10:42:42;101709.28;;;22.33;35.81
20368;BME280;10343;52.402;9.796;2023-05-08T10:45:13;101713.91;;;21.64;36.92
20368;BME280;10343;52.402;9.796;2023-05-08T10:47:49;101704.53;;;22.04;36.71
20368;BME280;10343;52.402;9.796;2023-05-08T10:50:33;101704.31;;;23.03;34.76
20368;BME280;10343;52.402;9.796;2023-05-08T10:53:06;101697.78;;;22.45;34.67
20368;BME280;10343;52.402;9.796;2023-05-08T10:55:40;101702.22;;;22.46;35.43
20368;BME280;10343;52.402;9.796;2023-05-08T10:58:12;101700.56;;;22.76;35.81
20368;BME280;10343;52.402;9.796;2023-05-08T11:01:09;101695.06;;;23.07;35.73
20368;BME280;10343;52.402;9.796;2023-05-08T11:03:39;101689.00;;;23.49;35.23
20368;BME280;10343;52.402;9.796;2023-05-08T11:06:09;101699.50;;;22.30;36.41
20368;BME280;10343;52.402;9.796;2023-05-08T11:08:51;101706.19;;;22.07;36.17
20368;BME280;10343;52.402;9.796;2023-05-08T11:11:27;101700.34;;;21.99;36.07
20368;BME280;10343;52.402;9.796;2023-05-08T11:14:01;101699.44;;;22.64;35.65
20368;BME280;10343;52.402;9.796;2023-05-08T11:17:04;101687.72;;;22.31;36.51
20368;BME280;10343;52.402;9.796;2023-05-08T11:19:35;101688.31;;;22.84;35.75
20368;BME280;10343;52.402;9.796;2023-05-08T11:22:20;101681.56;;;22.92;35.57
20368;BME280;10343;52.402;9.796;2023-05-08T11:24:53;101693.34;;;22.44;36.27
20368;BME280;10343;52.402;9.796;2023-05-08T11:30:35;101680.69;;;22.29;35.90
20368;BME280;10343;52.402;9.796;2023-05-08T11:33:14;101682.41;;;23.08;34.90
20368;BME280;10343;52.402;9.796;2023-05-08T11:35:50;101680.22;;;22.04;36.46
20368;BME280;10343;52.402;9.796;2023-05-08T11:38:24;101678.34;;;23.46;34.49
20368;BME280;10343;52.402;9.796;2023-05-08T11:40:55;101679.97;;;23.34;34.54
20368;BME280;10343;52.402;9.796;2023-05-08T11:46:37;101673.81;;;23.75;34.42
20368;BME280;10343;52.402;9.796;2023-05-08T11:49:09;101669.56;;;23.42;34.91
20368;BME280;10343;52.402;9.796;2023-05-08T11:51:37;101668.41;;;23.46;34.82
20368;BME280;10343;52.402;9.796;2023-05-08T11:54:15;101677.09;;;23.80;34.64
20368;BME280;10343;52.402;9.796;2023-05-08T11:56:45;101680.00;;;24.06;34.34
20368;BME280;10343;52.402;9.796;2023-05-08T11:59:14;101671.69;;;23.51;34.59
20368;BME280;10343;52.402;9.796;2023-05-08T12:01:43;101679.88;;;23.79;34.42
20368;BME280;10343;52.402;9.796;2023-05-08T12:04:25;101674.16;;;24.27;33.80
20368;BME280;10343;52.402;9.796;2023-05-08T12:06:56;101686.88;;;24.53;33.76
20368;BME280;10343;52.402;9.796;2023-05-08T12:09:24;101689.81;;;23.20;35.31
20368;BME280;10343;52.402;9.796;2023-05-08T12:11:55;101680.78;;;23.94;34.35
20368;BME280;10343;52.402;9.796;2023-05-08T12:14:23;101682.84;;;23.90;34.98
20368;BME280;10343;52.402;9.796;2023-05-08T12:16:53;101689.19;;;24.03;34.45
20368;BME280;10343;52.402;9.796;2023-05-08T12:19:21;101691.78;;;24.19;34.16
20368;BME280;10343;52.402;9.796;2023-05-08T12:21:49;101683.66;;;23.62;35.36
20368;BME280;10343;52.402;9.796;2023-05-08T12:24:17;101680.84;;;24.63;34.22
20368;BME280;10343;52.402;9.796;2023-05-08T12:26:51;101680.75;;;24.22;34.07
20368;BME280;10343;52.402;9.796;2023-05-08T12:29:19;101682.03;;;23.73;35.03
20368;BME280;10343;52.402;9.796;2023-05-08T12:31:48;101681.03;;;23.01;36.34
20368;BME280;10343;52.402;9.796;2023-05-08T12:34:18;101674.06;;;23.41;35.56
20368;BME280;10343;52.402;9.796;2023-05-08T12:36:47;101685.91;;;24.13;34.87
20368;BME280;10343;52.402;9.796;2023-05-08T12:39:17;101678.63;;;24.13;34.43
20368;BME280;10343;52.402;9.796;2023-05-08T12:41:46;101666.53;;;25.01;33.36
20368;BME280;10343;52.402;9.796;2023-05-08T12:44:18;101675.25;;;24.79;32.98
20368;BME280;10343;52.402;9.796;2023-05-08T12:46:48;101676.22;;;24.50;33.43
20368;BME280;10343;52.402;9.796;2023-05-08T12:49:25;101684.94;;;23.99;33.89
20368;BME280;10343;52.402;9.796;2023-05-08T12:52:05;101682.53;;;24.78;33.03
20368;BME280;10343;52.402;9.796;2023-05-08T12:54:35;101677.28;;;24.20;33.88
20368;BME280;10343;52.402;9.796;2023-05-08T12:57:10;101673.97;;;24.84;33.19
20368;BME280;10343;52.402;9.796;2023-05-08T12:59:39;101680.09;;;24.46;33.14
20368;BME280;10343;52.402;9.796;2023-05-08T13:02:12;101671.53;;;24.67;32.65
20368;BME280;10343;52.402;9.796;2023-05-08T13:04:42;101678.13;;;24.63;33.24
20368;BME280;10343;52.402;9.796;2023-05-08T13:07:11;101665.13;;;24.95;32.80
20368;BME280;10343;52.402;9.796;2023-05-08T13:09:39;101663.50;;;25.05;32.71
20368;BME280;10343;52.402;9.796;2023-05-08T13:12:07;101659.84;;;24.79;33.01
20368;BME280;10343;52.402;9.796;2023-05-08T13:14:35;101669.81;;;24.51;33.21
20368;BME280;10343;52.402;9.796;2023-05-08T13:17:03;101664.41;;;24.79;32.72